createdAt,value
2018-04-26T02:16:26.864Z,0.00
2018-04-26T02:16:27.425Z,0.00
2018-04-26T02:16:28.023Z,0.00
2018-04-26T02:16:28.622Z,0.00
2018-04-26T02:16:29.243Z,0.00
2018-04-26T02:16:29.821Z,0.00
2018-04-26T02:16:30.421Z,0.00
2018-04-26T02:16:31.025Z,0.00
2018-04-26T02:17:25.526Z,0.00
2018-04-26T02:17:26.097Z,0.00
2018-04-26T02:17:26.697Z,0.00
2018-04-26T02:17:27.300Z,0.00
2018-04-26T02:17:27.897Z,0.00
2018-04-26T02:17:28.496Z,0.00
2018-04-26T02:17:29.096Z,0.00
2018-04-26T02:17:29.697Z,0.00
2018-04-26T02:18:24.204Z,0.00
2018-04-26T02:18:24.783Z,0.00
2018-04-26T02:18:25.374Z,0.00
2018-04-26T02:18:25.979Z,0.00
2018-04-26T02:18:26.572Z,0.00
2018-04-26T02:18:27.175Z,0.00
2018-04-26T02:18:27.773Z,0.00
2018-04-26T02:18:28.373Z,0.00
2018-04-26T02:19:22.885Z,0.00
2018-04-26T02:19:23.450Z,0.00
2018-04-26T02:19:24.053Z,0.00
2018-04-26T02:19:24.650Z,0.00
2018-04-26T02:19:25.249Z,0.00
2018-04-26T02:19:25.849Z,0.00
2018-04-26T02:19:26.451Z,0.00
2018-04-26T02:19:27.049Z,0.00
2018-04-26T02:20:20.533Z,0.00
2018-04-26T02:20:21.105Z,0.00
2018-04-26T02:20:21.703Z,0.00
2018-04-26T02:20:22.328Z,0.00
2018-04-26T02:20:22.902Z,0.00
2018-04-26T02:20:23.504Z,0.00
2018-04-26T02:20:24.105Z,0.00
2018-04-26T02:20:24.712Z,0.00
2018-04-26T02:21:19.722Z,0.00
2018-04-26T02:21:20.290Z,0.00
2018-04-26T02:21:20.889Z,0.00
2018-04-26T02:21:21.490Z,0.00
2018-04-26T02:21:22.090Z,0.00
2018-04-26T02:21:22.690Z,0.00
2018-04-26T02:21:23.289Z,0.00
2018-04-26T02:22:17.786Z,0.00
2018-04-26T02:22:18.353Z,0.00
2018-04-26T02:22:18.953Z,0.00
2018-04-26T02:22:19.553Z,0.00
2018-04-26T02:22:20.152Z,0.00
2018-04-26T02:22:20.757Z,0.00
2018-04-26T02:22:21.352Z,0.00
2018-04-26T02:22:21.958Z,0.00
2018-04-26T02:23:15.946Z,0.00
2018-04-26T02:23:16.519Z,0.00
2018-04-26T02:23:17.118Z,0.00
2018-04-26T02:23:17.717Z,0.00
2018-04-26T02:23:18.316Z,0.00
2018-04-26T02:23:18.916Z,0.00
2018-04-26T02:23:19.515Z,0.00
2018-04-26T02:24:13.090Z,0.00
2018-04-26T02:24:13.657Z,0.00
2018-04-26T02:24:14.257Z,0.00
2018-04-26T02:24:14.856Z,0.00
2018-04-26T02:24:15.459Z,0.00
2018-04-26T02:24:16.060Z,0.00
2018-04-26T02:24:16.655Z,0.00
2018-04-26T02:24:17.257Z,0.00
2018-04-26T02:25:10.741Z,0.00
2018-04-26T02:25:11.310Z,0.00
2018-04-26T02:25:11.909Z,0.00
2018-04-26T02:25:12.510Z,0.00
2018-04-26T02:25:13.112Z,0.00
2018-04-26T02:25:13.709Z,0.00
2018-04-26T02:25:14.308Z,0.00
2018-04-26T02:25:14.907Z,0.00
2018-04-26T02:26:08.396Z,0.00
2018-04-26T02:26:08.962Z,0.00
2018-04-26T02:26:09.560Z,0.00
2018-04-26T02:26:10.165Z,0.00
2018-04-26T02:26:10.767Z,0.00
2018-04-26T02:26:11.370Z,0.00
2018-04-26T02:26:11.959Z,0.00
2018-04-26T02:26:12.559Z,0.00
2018-04-26T02:27:06.042Z,0.00
2018-04-26T02:27:06.615Z,0.00
2018-04-26T02:27:07.212Z,0.00
2018-04-26T02:27:07.813Z,0.00
2018-04-26T02:27:08.415Z,0.00
2018-04-26T02:27:09.018Z,0.00
2018-04-26T02:27:09.615Z,0.00
2018-04-26T02:27:10.214Z,0.00
2018-04-26T02:28:03.697Z,0.00
2018-04-26T02:28:04.264Z,0.00
2018-04-26T02:28:04.864Z,0.00
2018-04-26T02:28:05.465Z,0.00
2018-04-26T02:28:06.068Z,0.00
2018-04-26T02:28:06.665Z,0.00
2018-04-26T02:28:07.261Z,0.00
2018-04-26T02:28:07.862Z,0.00
2018-04-26T02:29:01.347Z,0.00
2018-04-26T02:29:01.916Z,0.00
2018-04-26T02:29:02.517Z,0.00
2018-04-26T02:29:03.116Z,0.00
2018-04-26T02:29:03.718Z,0.00
2018-04-26T02:29:04.322Z,0.00
2018-04-26T02:29:04.916Z,0.00
2018-04-26T02:29:05.520Z,0.00
2018-04-26T02:30:00.022Z,0.00
2018-04-26T02:30:00.592Z,0.00
2018-04-26T02:30:01.191Z,0.00
2018-04-26T02:30:01.791Z,0.00
2018-04-26T02:30:02.421Z,0.00
2018-04-26T02:30:02.996Z,0.00
2018-04-26T02:30:03.590Z,0.00
2018-04-26T02:30:04.190Z,0.00
2018-04-26T02:30:58.190Z,0.00
2018-04-26T02:30:58.760Z,0.00
2018-04-26T02:30:59.357Z,0.00
2018-04-26T02:30:59.955Z,0.00
2018-04-26T02:31:00.557Z,0.00
2018-04-26T02:31:01.155Z,0.00
2018-04-26T02:31:01.756Z,0.00
2018-04-26T02:31:55.350Z,0.00
2018-04-26T02:31:55.898Z,0.00
2018-04-26T02:31:56.503Z,0.00
2018-04-26T02:31:57.098Z,0.00
2018-04-26T02:31:57.696Z,0.00
2018-04-26T02:31:58.296Z,0.00
2018-04-26T02:31:58.896Z,0.00
2018-04-26T02:31:59.495Z,0.00
2018-04-26T02:32:52.977Z,0.00
2018-04-26T02:32:53.549Z,0.00
2018-04-26T02:32:54.147Z,0.00
2018-04-26T02:32:54.749Z,0.00
2018-04-26T02:32:55.351Z,0.00
2018-04-26T02:32:55.957Z,0.00
2018-04-26T02:32:56.549Z,0.00
2018-04-26T02:32:57.145Z,0.00
2018-04-26T02:33:50.629Z,0.00
2018-04-26T02:33:51.200Z,0.00
2018-04-26T02:33:51.798Z,0.00
2018-04-26T02:33:52.403Z,0.00
2018-04-26T02:33:53.005Z,0.00
2018-04-26T02:33:53.601Z,0.00
2018-04-26T02:33:54.198Z,0.00
2018-04-26T02:33:54.797Z,0.00
2018-04-26T02:34:48.289Z,0.00
2018-04-26T02:34:48.850Z,0.00
2018-04-26T02:34:49.452Z,0.00
2018-04-26T02:34:50.055Z,0.00
2018-04-26T02:34:50.652Z,0.00
2018-04-26T02:34:51.250Z,0.00
2018-04-26T02:34:51.850Z,0.00
2018-04-26T02:34:52.451Z,0.00
2018-04-26T02:35:45.939Z,0.00
2018-04-26T02:35:46.502Z,0.00
2018-04-26T02:35:47.103Z,0.00
2018-04-26T02:35:47.706Z,0.00
2018-04-26T02:35:48.304Z,0.00
2018-04-26T02:35:48.902Z,0.00
2018-04-26T02:35:49.503Z,0.00
2018-04-26T02:35:50.103Z,0.00
2018-04-26T02:36:43.588Z,0.00
2018-04-26T02:36:44.161Z,0.00
2018-04-26T02:36:44.755Z,0.00
2018-04-26T02:36:45.376Z,0.00
2018-04-26T02:36:45.963Z,0.00
2018-04-26T02:36:46.556Z,0.00
2018-04-26T02:36:47.156Z,0.00
2018-04-26T02:36:47.753Z,0.00
2018-04-26T02:37:41.235Z,0.00
2018-04-26T02:37:41.806Z,0.00
2018-04-26T02:37:42.406Z,0.00
2018-04-26T02:37:43.008Z,0.00
2018-04-26T02:37:43.605Z,0.00
2018-04-26T02:37:44.206Z,0.00
2018-04-26T02:37:44.805Z,0.00
2018-04-26T02:37:45.408Z,0.00
2018-04-26T02:38:39.404Z,0.00
2018-04-26T02:38:39.984Z,0.00
2018-04-26T02:38:40.568Z,0.00
2018-04-26T02:38:41.194Z,0.00
2018-04-26T02:38:41.768Z,0.00
2018-04-26T02:38:42.366Z,0.00
2018-04-26T02:38:42.968Z,0.00
2018-04-26T02:39:37.465Z,0.00
2018-04-26T02:39:38.032Z,0.00
2018-04-26T02:39:38.629Z,0.00
2018-04-26T02:39:39.232Z,0.00
2018-04-26T02:39:39.831Z,0.00
2018-04-26T02:39:40.430Z,0.00
2018-04-26T02:39:41.030Z,0.00
2018-04-26T02:39:41.628Z,0.00
2018-04-26T02:40:35.112Z,0.00
2018-04-26T02:40:35.682Z,0.00
2018-04-26T02:40:36.282Z,0.00
2018-04-26T02:40:36.881Z,0.00
2018-04-26T02:40:37.483Z,0.00
2018-04-26T02:40:38.085Z,0.00
2018-04-26T02:40:38.680Z,0.00
2018-04-26T02:40:39.282Z,0.00
2018-04-26T02:41:32.859Z,0.00
2018-04-26T02:41:33.334Z,0.00
2018-04-26T02:41:33.933Z,0.00
2018-04-26T02:41:34.534Z,0.00
2018-04-26T02:41:35.137Z,0.00
2018-04-26T02:41:35.733Z,0.00
2018-04-26T02:41:36.335Z,0.00
2018-04-26T02:41:36.938Z,0.00
2018-04-26T02:42:31.439Z,0.00
2018-04-26T02:42:32.011Z,0.00
2018-04-26T02:42:32.608Z,0.00
2018-04-26T02:42:33.209Z,0.00
2018-04-26T02:42:33.808Z,0.00
2018-04-26T02:42:34.411Z,0.00
2018-04-26T02:42:35.009Z,0.00
2018-04-26T02:42:35.609Z,0.00
2018-04-26T02:43:30.115Z,0.00
2018-04-26T02:43:30.684Z,0.00
2018-04-26T02:43:31.288Z,0.00
2018-04-26T02:43:31.884Z,0.00
2018-04-26T02:43:32.486Z,0.00
2018-04-26T02:43:33.084Z,0.00
2018-04-26T02:43:33.684Z,0.00
2018-04-26T02:43:34.283Z,0.00
2018-04-26T02:44:27.767Z,0.00
2018-04-26T02:44:28.340Z,0.00
2018-04-26T02:44:28.943Z,0.00
2018-04-26T02:44:29.538Z,0.00
2018-04-26T02:44:30.137Z,0.00
2018-04-26T02:44:30.737Z,0.00
2018-04-26T02:44:31.336Z,0.00
2018-04-26T02:45:45.905Z,0.00
2018-04-26T02:45:46.469Z,0.00
2018-04-26T02:45:47.069Z,0.00
2018-04-26T02:45:47.668Z,0.00
2018-04-26T02:45:48.277Z,0.00
2018-04-26T02:45:48.917Z,0.00
2018-04-26T02:45:49.546Z,0.00
2018-04-26T02:45:50.097Z,0.00
2018-04-26T02:46:44.574Z,0.00
2018-04-26T02:46:45.147Z,0.00
2018-04-26T02:46:45.743Z,0.00
2018-04-26T02:46:46.344Z,0.00
2018-04-26T02:46:46.947Z,0.00
2018-04-26T02:46:47.554Z,0.00
2018-04-26T02:46:48.143Z,0.00
2018-04-26T02:46:48.743Z,0.00
2018-04-26T02:47:42.229Z,0.00
2018-04-26T02:47:42.797Z,0.00
2018-04-26T02:47:43.395Z,0.00
2018-04-26T02:47:43.996Z,0.00
2018-04-26T02:47:44.595Z,0.00
2018-04-26T02:47:45.196Z,0.00
2018-04-26T02:47:45.794Z,0.00
2018-04-26T02:47:46.396Z,0.00
2018-04-26T02:48:39.879Z,0.00
2018-04-26T02:48:40.448Z,0.00
2018-04-26T02:48:41.052Z,0.00
2018-04-26T02:48:41.648Z,0.00
2018-04-26T02:48:42.247Z,0.00
2018-04-26T02:48:42.847Z,0.00
2018-04-26T02:48:43.446Z,0.00
2018-04-26T02:48:44.050Z,0.00
2018-04-26T02:49:37.530Z,0.00
2018-04-26T02:49:38.099Z,0.00
2018-04-26T02:49:38.700Z,0.00
2018-04-26T02:49:39.301Z,0.00
2018-04-26T02:49:39.902Z,0.00
2018-04-26T02:49:40.501Z,0.00
2018-04-26T02:49:41.098Z,0.00
2018-04-26T02:49:41.699Z,0.00
2018-04-26T02:50:36.205Z,0.00
2018-04-26T02:50:36.778Z,0.00
2018-04-26T02:50:37.373Z,0.00
2018-04-26T02:50:37.974Z,0.00
2018-04-26T02:50:38.576Z,0.00
2018-04-26T02:50:39.173Z,0.00
2018-04-26T02:50:39.773Z,0.00
2018-04-26T02:50:40.373Z,0.00
2018-04-26T02:51:34.879Z,0.00
2018-04-26T02:51:35.449Z,0.00
2018-04-26T02:51:36.049Z,0.00
2018-04-26T02:51:36.650Z,0.00
2018-04-26T02:51:37.252Z,0.00
2018-04-26T02:51:37.851Z,0.00
2018-04-26T02:51:38.452Z,0.00
2018-04-26T02:51:39.072Z,0.00
2018-04-26T02:52:32.532Z,0.00
2018-04-26T02:52:33.109Z,0.00
2018-04-26T02:52:33.712Z,0.00
2018-04-26T02:52:34.300Z,0.00
2018-04-26T02:52:34.900Z,0.00
2018-04-26T02:52:35.501Z,0.00
2018-04-26T02:52:36.100Z,0.00
2018-04-26T02:52:36.701Z,0.00
2018-04-26T02:53:30.183Z,0.00
2018-04-26T02:53:30.756Z,0.00
2018-04-26T02:53:31.354Z,0.00
2018-04-26T02:53:31.953Z,0.00
2018-04-26T02:53:32.553Z,0.00
2018-04-26T02:53:33.157Z,0.00
2018-04-26T02:53:33.756Z,0.00
2018-04-26T02:53:34.354Z,0.00
2018-04-26T02:54:27.837Z,0.00
2018-04-26T02:54:28.407Z,0.00
2018-04-26T02:54:29.010Z,0.00
2018-04-26T02:54:29.607Z,0.00
2018-04-26T02:54:30.206Z,0.00
2018-04-26T02:54:30.810Z,0.00
2018-04-26T02:54:31.407Z,0.00
2018-04-26T02:54:32.007Z,0.00
2018-04-26T02:55:26.510Z,0.00
2018-04-26T02:55:27.083Z,0.00
2018-04-26T02:55:27.680Z,0.00
2018-04-26T02:55:28.280Z,0.00
2018-04-26T02:55:28.884Z,0.00
2018-04-26T02:55:29.480Z,0.00
2018-04-26T02:55:30.080Z,0.00
2018-04-26T02:55:30.680Z,0.00
2018-04-26T02:56:24.164Z,0.00
2018-04-26T02:56:24.734Z,0.00
2018-04-26T02:56:25.336Z,0.00
2018-04-26T02:56:25.932Z,0.00
2018-04-26T02:56:26.531Z,0.00
2018-04-26T02:56:27.134Z,0.00
2018-04-26T02:56:27.734Z,0.00
2018-04-26T02:56:28.334Z,0.00
2018-04-26T02:57:21.815Z,0.00
2018-04-26T02:57:22.385Z,0.00
2018-04-26T02:57:22.990Z,0.00
2018-04-26T02:57:23.591Z,0.00
2018-04-26T02:57:24.183Z,0.00
2018-04-26T02:57:24.783Z,0.00
2018-04-26T02:57:25.383Z,0.00
2018-04-26T02:57:25.983Z,0.00
2018-04-26T02:58:20.490Z,0.00
2018-04-26T02:58:21.063Z,0.00
2018-04-26T02:58:21.658Z,0.00
2018-04-26T02:58:22.256Z,0.00
2018-04-26T02:58:22.858Z,0.00
2018-04-26T02:58:23.458Z,0.00
2018-04-26T02:58:24.057Z,0.00
2018-04-26T02:58:24.657Z,0.00
2018-04-26T02:59:19.170Z,0.00
2018-04-26T02:59:19.737Z,0.00
2018-04-26T02:59:20.342Z,0.00
2018-04-26T02:59:20.938Z,0.00
2018-04-26T02:59:21.535Z,0.00
2018-04-26T02:59:22.135Z,0.00
2018-04-26T02:59:22.734Z,0.00
2018-04-26T02:59:23.341Z,0.00
2018-04-26T03:00:17.846Z,0.00
2018-04-26T03:00:18.411Z,0.00
2018-04-26T03:00:19.010Z,0.00
2018-04-26T03:00:19.610Z,0.00
2018-04-26T03:00:20.211Z,0.00
2018-04-26T03:00:20.811Z,0.00
2018-04-26T03:00:21.418Z,0.00
2018-04-26T03:00:22.009Z,0.00
2018-04-26T03:01:15.494Z,0.00
2018-04-26T03:01:16.063Z,0.00
2018-04-26T03:01:16.664Z,0.00
2018-04-26T03:01:17.262Z,0.00
2018-04-26T03:01:17.863Z,0.00
2018-04-26T03:01:18.463Z,0.00
2018-04-26T03:01:19.064Z,0.00
2018-04-26T03:01:19.663Z,0.00
2018-04-26T03:02:14.170Z,0.00
2018-04-26T03:02:14.737Z,0.00
2018-04-26T03:02:15.338Z,0.00
2018-04-26T03:02:15.939Z,0.00
2018-04-26T03:02:16.543Z,0.00
2018-04-26T03:02:17.137Z,0.00
2018-04-26T03:02:17.740Z,0.00
2018-04-26T03:02:18.341Z,0.00
2018-04-26T03:03:11.821Z,0.00
2018-04-26T03:03:12.392Z,0.00
2018-04-26T03:03:12.995Z,0.00
2018-04-26T03:03:13.590Z,0.00
2018-04-26T03:03:14.192Z,0.00
2018-04-26T03:03:14.791Z,0.00
2018-04-26T03:03:15.390Z,0.00
2018-04-26T03:03:15.990Z,0.00
2018-04-26T03:04:09.480Z,0.00
2018-04-26T03:04:10.044Z,0.00
2018-04-26T03:04:10.641Z,0.00
2018-04-26T03:04:11.242Z,0.00
2018-04-26T03:04:11.844Z,0.00
2018-04-26T03:04:12.442Z,0.00
2018-04-26T03:04:13.043Z,0.00
2018-04-26T03:04:13.642Z,0.00
2018-04-26T03:05:08.149Z,0.00
2018-04-26T03:05:08.718Z,0.00
2018-04-26T03:05:09.329Z,0.00
2018-04-26T03:05:09.920Z,0.00
2018-04-26T03:05:10.518Z,0.00
2018-04-26T03:05:11.119Z,0.00
2018-04-26T03:05:11.717Z,0.00
2018-04-26T03:05:12.316Z,0.00
2018-04-26T03:06:06.822Z,0.00
2018-04-26T03:06:07.409Z,0.00
2018-04-26T03:06:07.991Z,0.00
2018-04-26T03:06:08.596Z,0.00
2018-04-26T03:06:09.193Z,0.00
2018-04-26T03:06:09.792Z,0.00
2018-04-26T03:06:10.390Z,0.00
2018-04-26T03:06:10.993Z,0.00
2018-04-26T03:07:05.499Z,0.00
2018-04-26T03:07:06.074Z,0.00
2018-04-26T03:07:06.669Z,0.00
2018-04-26T03:07:07.268Z,0.00
2018-04-26T03:07:07.869Z,0.00
2018-04-26T03:07:08.468Z,0.00
2018-04-26T03:07:09.070Z,0.00
2018-04-26T03:07:09.668Z,0.00
2018-04-26T03:08:04.175Z,0.00
2018-04-26T03:08:04.744Z,0.00
2018-04-26T03:08:05.344Z,0.00
2018-04-26T03:08:05.944Z,0.00
2018-04-26T03:08:06.545Z,0.00
2018-04-26T03:08:07.144Z,0.00
2018-04-26T03:08:07.747Z,0.00
2018-04-26T03:08:08.344Z,0.00
2018-04-26T03:09:02.853Z,0.00
2018-04-26T03:09:03.422Z,0.00
2018-04-26T03:09:04.021Z,0.00
2018-04-26T03:09:04.621Z,0.00
2018-04-26T03:09:05.221Z,0.00
2018-04-26T03:09:05.820Z,0.00
2018-04-26T03:09:06.421Z,0.00
2018-04-26T03:09:07.021Z,0.00
2018-04-26T03:10:00.501Z,0.00
2018-04-26T03:10:01.075Z,0.00
2018-04-26T03:10:01.677Z,0.00
2018-04-26T03:10:02.272Z,0.00
2018-04-26T03:10:02.875Z,0.00
2018-04-26T03:10:03.474Z,0.00
2018-04-26T03:10:04.085Z,0.00
2018-04-26T03:10:04.673Z,0.00
2018-04-26T03:10:59.203Z,0.00
2018-04-26T03:10:59.745Z,0.00
2018-04-26T03:11:00.345Z,0.00
2018-04-26T03:11:00.951Z,0.00
2018-04-26T03:11:01.548Z,0.00
2018-04-26T03:11:02.147Z,0.00
2018-04-26T03:11:02.746Z,0.00
2018-04-26T03:11:03.354Z,0.00
2018-04-26T03:11:56.831Z,0.00
2018-04-26T03:11:57.400Z,0.00
2018-04-26T03:11:57.998Z,0.00
2018-04-26T03:11:58.601Z,0.00
2018-04-26T03:11:59.198Z,0.00
2018-04-26T03:11:59.811Z,0.00
2018-04-26T03:12:00.404Z,0.00
2018-04-26T03:12:01.012Z,0.00
2018-04-26T03:29:12.612Z,0.00
2018-04-26T03:29:13.181Z,0.00
2018-04-26T03:29:13.779Z,0.00
2018-04-26T03:29:14.380Z,0.00
2018-04-26T03:29:14.995Z,0.00
2018-04-26T03:29:15.578Z,0.00
2018-04-26T03:29:16.178Z,0.00
2018-04-26T03:29:16.778Z,0.00
2018-04-26T03:30:10.265Z,0.00
2018-04-26T03:30:10.833Z,0.00
2018-04-26T03:30:11.433Z,0.00
2018-04-26T03:30:12.032Z,0.00
2018-04-26T03:30:12.635Z,0.00
2018-04-26T03:30:13.233Z,0.00
2018-04-26T03:30:13.831Z,0.00
2018-04-26T03:30:14.433Z,0.00
2018-04-26T03:31:07.970Z,0.00
2018-04-26T03:31:08.523Z,0.00
2018-04-26T03:31:09.103Z,0.00
2018-04-26T03:31:09.724Z,0.00
2018-04-26T03:31:10.325Z,0.00
2018-04-26T03:31:10.898Z,0.00
2018-04-26T03:31:11.588Z,0.00
2018-04-26T03:31:12.125Z,0.00
2018-04-26T03:32:06.592Z,0.00
2018-04-26T03:32:07.159Z,0.00
2018-04-26T03:32:07.760Z,0.00
2018-04-26T03:32:08.360Z,0.00
2018-04-26T03:32:08.963Z,0.00
2018-04-26T03:32:09.560Z,0.00
2018-04-26T03:32:10.159Z,0.00
2018-04-26T03:32:10.759Z,0.00
2018-04-26T03:33:05.269Z,0.00
2018-04-26T03:33:05.839Z,0.00
2018-04-26T03:33:06.435Z,0.00
2018-04-26T03:33:07.049Z,0.00
2018-04-26T03:33:07.648Z,0.00
2018-04-26T03:33:08.236Z,0.00
2018-04-26T03:33:08.835Z,0.00
2018-04-26T03:33:09.435Z,0.00
2018-04-26T03:34:03.944Z,0.00
2018-04-26T03:34:04.513Z,0.00
2018-04-26T03:34:05.111Z,0.00
2018-04-26T03:34:05.713Z,0.00
2018-04-26T03:34:06.314Z,0.00
2018-04-26T03:34:06.911Z,0.00
2018-04-26T03:34:07.512Z,0.00
2018-04-26T03:34:08.114Z,0.00
2018-04-26T03:35:01.598Z,0.00
2018-04-26T03:35:02.164Z,0.00
2018-04-26T03:35:02.764Z,0.00
2018-04-26T03:35:03.364Z,0.00
2018-04-26T03:35:03.965Z,0.00
2018-04-26T03:35:04.565Z,0.00
2018-04-26T03:35:05.166Z,0.00
2018-04-26T03:35:05.764Z,0.00
2018-04-26T03:35:59.251Z,4.00
2018-04-26T03:35:59.817Z,4.00
2018-04-26T03:36:00.416Z,4.00
2018-04-26T03:36:01.017Z,4.00
2018-04-26T03:36:01.616Z,4.00
2018-04-26T03:36:02.216Z,4.00
2018-04-26T03:36:02.817Z,4.00
2018-04-26T03:36:03.419Z,4.00
2018-04-26T03:36:57.922Z,4.00
2018-04-26T03:36:58.496Z,4.00
2018-04-26T03:36:59.092Z,4.00
2018-04-26T03:36:59.691Z,4.00
2018-04-26T03:37:00.292Z,4.00
2018-04-26T03:37:00.894Z,0.00
2018-04-26T03:37:01.491Z,4.00
2018-04-26T03:37:02.091Z,4.00
2018-04-26T03:37:56.086Z,0.00
2018-04-26T03:37:56.661Z,0.00
2018-04-26T03:37:57.255Z,0.00
2018-04-26T03:37:57.854Z,0.00
2018-04-26T03:37:58.456Z,0.00
2018-04-26T03:37:59.057Z,0.00
2018-04-26T03:37:59.655Z,0.00
2018-04-26T03:38:54.664Z,0.00
2018-04-26T03:38:55.232Z,0.00
2018-04-26T03:38:55.836Z,0.00
2018-04-26T03:38:56.431Z,0.00
2018-04-26T03:38:57.037Z,0.00
2018-04-26T03:38:57.630Z,0.00
2018-04-26T03:40:03.172Z,4.00
2018-04-26T03:40:03.737Z,4.00
2018-04-26T03:40:04.346Z,4.00
2018-04-26T03:40:04.933Z,4.00
2018-04-26T03:40:05.534Z,4.00
2018-04-26T03:40:06.136Z,4.00
2018-04-26T03:41:01.645Z,4.00
2018-04-26T03:41:02.207Z,4.00
2018-04-26T03:41:02.807Z,4.00
2018-04-26T03:41:03.408Z,4.00
2018-04-26T03:41:04.006Z,4.00
2018-04-26T03:41:04.605Z,4.00
2018-04-26T03:41:05.214Z,4.00
2018-04-26T03:41:59.697Z,4.00
2018-04-26T03:42:00.268Z,4.00
2018-04-26T03:42:00.867Z,0.00
2018-04-26T03:42:01.467Z,4.00
2018-04-26T03:42:02.067Z,0.00
2018-04-26T03:42:02.670Z,4.00
2018-04-26T03:42:03.267Z,4.00
2018-04-26T03:42:03.866Z,4.00
2018-04-26T03:42:57.349Z,4.00
2018-04-26T03:42:57.920Z,4.00
2018-04-26T03:42:58.522Z,4.00
2018-04-26T03:42:59.121Z,4.00
2018-04-26T03:42:59.723Z,4.00
2018-04-26T03:43:00.320Z,4.00
2018-04-26T03:43:00.919Z,4.00
2018-04-26T03:43:01.522Z,4.00
2018-04-26T03:43:55.004Z,4.00
2018-04-26T03:43:55.574Z,4.00
2018-04-26T03:43:56.176Z,4.00
2018-04-26T03:43:56.773Z,4.00
2018-04-26T03:43:57.372Z,4.00
2018-04-26T03:43:57.972Z,4.00
2018-04-26T03:43:58.572Z,4.00
2018-04-26T03:43:59.171Z,4.00
2018-04-26T03:44:53.678Z,4.00
2018-04-26T03:44:54.247Z,4.00
2018-04-26T03:44:54.850Z,4.00
2018-04-26T03:44:55.445Z,4.00
2018-04-26T03:44:56.046Z,4.00
2018-04-26T03:44:56.647Z,4.00
2018-04-26T03:44:57.246Z,4.00
2018-04-26T03:44:57.854Z,4.00
2018-04-26T03:45:52.354Z,4.00
2018-04-26T03:45:52.923Z,4.00
2018-04-26T03:45:53.525Z,4.00
2018-04-26T03:45:54.123Z,4.00
2018-04-26T03:45:54.721Z,4.00
2018-04-26T03:45:55.323Z,4.00
2018-04-26T03:45:55.921Z,4.00
2018-04-26T03:45:56.523Z,4.00
2018-04-26T03:46:50.006Z,4.00
2018-04-26T03:46:50.575Z,4.00
2018-04-26T03:46:51.177Z,4.00
2018-04-26T03:46:51.775Z,4.00
2018-04-26T03:46:52.380Z,4.00
2018-04-26T03:46:52.974Z,4.00
2018-04-26T03:46:53.575Z,4.00
2018-04-26T03:46:54.174Z,4.00
2018-04-26T03:47:47.656Z,4.00
2018-04-26T03:47:48.228Z,4.00
2018-04-26T03:47:48.831Z,4.00
2018-04-26T03:47:49.428Z,4.00
2018-04-26T03:47:50.028Z,4.00
2018-04-26T03:47:50.627Z,4.00
2018-04-26T03:47:51.249Z,4.00
2018-04-26T03:47:51.827Z,4.00
2018-04-26T03:48:46.334Z,4.00
2018-04-26T03:48:46.902Z,4.00
2018-04-26T03:48:47.501Z,4.00
2018-04-26T03:48:48.106Z,4.00
2018-04-26T03:48:48.702Z,4.00
2018-04-26T03:48:49.302Z,4.00
2018-04-26T03:48:49.901Z,4.00
2018-04-26T03:48:50.502Z,4.00
2018-04-26T03:49:45.012Z,8.00
2018-04-26T03:49:45.579Z,8.00
2018-04-26T03:49:46.182Z,8.00
2018-04-26T03:49:46.778Z,8.00
2018-04-26T03:49:47.377Z,8.00
2018-04-26T03:49:47.978Z,8.00
2018-04-26T03:49:48.576Z,8.00
2018-04-26T03:49:49.176Z,8.00
2018-04-26T03:50:42.661Z,12.00
2018-04-26T03:50:43.234Z,12.00
2018-04-26T03:50:43.832Z,12.00
2018-04-26T03:50:44.431Z,12.00
2018-04-26T03:50:45.033Z,12.00
2018-04-26T03:50:45.630Z,12.00
2018-04-26T03:50:46.233Z,12.00
2018-04-26T03:50:46.910Z,12.00
2018-04-26T03:51:40.312Z,12.00
2018-04-26T03:51:40.885Z,12.00
2018-04-26T03:51:41.484Z,12.00
2018-04-26T03:51:42.082Z,12.00
2018-04-26T03:51:42.683Z,12.00
2018-04-26T03:51:43.282Z,12.00
2018-04-26T03:51:43.882Z,12.00
2018-04-26T03:51:44.481Z,12.00
2018-04-26T03:52:38.988Z,16.00
2018-04-26T03:52:39.560Z,16.00
2018-04-26T03:52:40.160Z,16.00
2018-04-26T03:52:40.757Z,16.00
2018-04-26T03:52:41.358Z,16.00
2018-04-26T03:52:41.960Z,16.00
2018-04-26T03:52:42.556Z,16.00
2018-04-26T03:52:43.160Z,16.00
2018-04-26T03:53:37.667Z,20.00
2018-04-26T03:53:38.244Z,20.00
2018-04-26T03:53:38.831Z,20.00
2018-04-26T03:53:39.432Z,20.00
2018-04-26T03:53:40.033Z,20.00
2018-04-26T03:53:40.635Z,20.00
2018-04-26T03:53:41.239Z,20.00
2018-04-26T03:53:41.832Z,20.00
2018-04-26T03:54:36.328Z,24.00
2018-04-26T03:54:36.903Z,24.00
2018-04-26T03:54:37.503Z,24.00
2018-04-26T03:54:38.102Z,24.00
2018-04-26T03:54:38.702Z,24.00
2018-04-26T03:54:39.302Z,24.00
2018-04-26T03:54:39.902Z,24.00
2018-04-26T03:54:40.505Z,24.00
2018-04-26T03:55:33.980Z,28.00
2018-04-26T03:55:34.555Z,28.00
2018-04-26T03:55:35.158Z,28.00
2018-04-26T03:55:35.755Z,28.00
2018-04-26T03:55:36.356Z,28.00
2018-04-26T03:55:36.958Z,28.00
2018-04-26T03:55:37.553Z,28.00
2018-04-26T03:55:38.154Z,28.00
2018-04-26T03:56:31.632Z,32.00
2018-04-26T03:56:32.211Z,32.00
2018-04-26T03:56:32.806Z,32.00
2018-04-26T03:56:33.406Z,32.00
2018-04-26T03:56:34.012Z,32.00
2018-04-26T03:56:34.606Z,32.00
2018-04-26T03:56:35.206Z,32.00
2018-04-26T03:56:35.819Z,32.00
2018-04-26T03:57:29.284Z,32.00
2018-04-26T03:57:29.858Z,32.00
2018-04-26T03:57:30.457Z,32.00
2018-04-26T03:57:31.063Z,32.00
2018-04-26T03:57:31.662Z,32.00
2018-04-26T03:57:32.260Z,32.00
2018-04-26T03:57:32.858Z,32.00
2018-04-26T03:57:33.457Z,32.00
2018-04-26T03:58:26.944Z,36.00
2018-04-26T03:58:27.512Z,32.00
2018-04-26T03:58:28.110Z,32.00
2018-04-26T03:58:28.709Z,32.00
2018-04-26T03:58:29.309Z,32.00
2018-04-26T03:58:29.911Z,32.00
2018-04-26T03:58:30.509Z,32.00
2018-04-26T03:58:31.186Z,32.00
2018-04-26T03:59:24.588Z,40.00
2018-04-26T03:59:25.162Z,40.00
2018-04-26T03:59:25.768Z,40.00
2018-04-26T03:59:26.363Z,40.00
2018-04-26T03:59:26.963Z,40.00
2018-04-26T03:59:27.563Z,40.00
2018-04-26T03:59:28.161Z,40.00
2018-04-26T03:59:28.760Z,40.00
2018-04-26T04:00:22.243Z,40.00
2018-04-26T04:00:22.816Z,40.00
2018-04-26T04:00:23.413Z,40.00
2018-04-26T04:00:24.013Z,40.00
2018-04-26T04:00:24.613Z,40.00
2018-04-26T04:00:25.214Z,40.00
2018-04-26T04:00:25.812Z,40.00
2018-04-26T04:00:26.413Z,40.00
2018-04-26T04:01:19.889Z,40.00
2018-04-26T04:01:20.469Z,40.00
2018-04-26T04:01:21.064Z,44.00
2018-04-26T04:01:21.663Z,44.00
2018-04-26T04:01:22.263Z,44.00
2018-04-26T04:01:22.862Z,44.00
2018-04-26T04:01:23.463Z,44.00
2018-04-26T04:01:24.062Z,44.00
2018-04-26T04:02:18.567Z,48.00
2018-04-26T04:02:19.143Z,48.00
2018-04-26T04:02:19.739Z,48.00
2018-04-26T04:02:20.338Z,48.00
2018-04-26T04:02:20.939Z,48.00
2018-04-26T04:02:21.538Z,48.00
2018-04-26T04:02:22.138Z,52.00
2018-04-26T04:02:22.739Z,52.00
2018-04-26T04:03:16.728Z,56.00
2018-04-26T04:03:17.309Z,56.00
2018-04-26T04:03:17.904Z,60.00
2018-04-26T04:03:18.504Z,60.00
2018-04-26T04:03:19.103Z,60.00
2018-04-26T04:03:19.702Z,60.00
2018-04-26T04:03:20.302Z,60.00
2018-04-26T04:04:13.872Z,68.00
2018-04-26T04:04:14.446Z,68.00
2018-04-26T04:04:15.045Z,68.00
2018-04-26T04:04:15.648Z,72.00
2018-04-26T04:04:16.244Z,72.00
2018-04-26T04:04:16.845Z,72.00
2018-04-26T04:04:17.443Z,72.00
2018-04-26T04:04:18.043Z,72.00
2018-04-26T04:05:11.521Z,84.00
2018-04-26T04:05:12.096Z,84.00
2018-04-26T04:05:12.695Z,88.00
2018-04-26T04:05:13.295Z,88.00
2018-04-26T04:05:13.895Z,84.00
2018-04-26T04:05:14.496Z,84.00
2018-04-26T04:05:15.097Z,84.00
2018-04-26T04:05:15.695Z,84.00
2018-04-26T04:06:10.198Z,104.00
2018-04-26T04:06:10.770Z,104.00
2018-04-26T04:06:11.370Z,104.00
2018-04-26T04:06:11.969Z,104.00
2018-04-26T04:06:12.569Z,100.00
2018-04-26T04:06:13.169Z,104.00
2018-04-26T04:06:13.771Z,104.00
2018-04-26T04:06:14.371Z,104.00
2018-04-26T04:07:08.873Z,120.00
2018-04-26T04:07:09.447Z,120.00
2018-04-26T04:07:10.046Z,120.00
2018-04-26T04:07:10.650Z,120.00
2018-04-26T04:07:11.245Z,120.00
2018-04-26T04:07:11.848Z,120.00
2018-04-26T04:07:12.445Z,124.00
2018-04-26T04:07:13.045Z,124.00
2018-04-26T04:08:07.547Z,132.00
2018-04-26T04:08:08.122Z,132.00
2018-04-26T04:08:08.725Z,132.00
2018-04-26T04:08:09.321Z,132.00
2018-04-26T04:08:09.921Z,132.00
2018-04-26T04:08:10.522Z,132.00
2018-04-26T04:08:11.121Z,132.00
2018-04-26T04:08:11.723Z,132.00
2018-04-26T04:09:05.200Z,144.00
2018-04-26T04:09:05.776Z,140.00
2018-04-26T04:09:06.374Z,140.00
2018-04-26T04:09:06.975Z,140.00
2018-04-26T04:09:07.578Z,144.00
2018-04-26T04:09:08.174Z,144.00
2018-04-26T04:09:08.776Z,144.00
2018-04-26T04:09:09.374Z,144.00
2018-04-26T04:10:03.879Z,148.00
2018-04-26T04:10:04.451Z,148.00
2018-04-26T04:10:05.049Z,148.00
2018-04-26T04:10:05.648Z,148.00